Carmel Valley Village, California
Current Conditions -  °F | °C
As of 2:54 AM on Saturday 22 Nov 2014 (Local Time) from KMRY Reporting Station
Scattered Clouds Scattered Clouds  
Wind Chill: 55°   Ceiling: Unl
Heat Index: 55°   Visibility: 10mi
Dew Point: 46°   Wind: 7mph
Humidity: 72%   Direction: 100°E
Pressure: 30.15"   Gusts: NA
Location:  36.407°N, 121.657°W
Report Text: KMRY 221054Z AUTO 10006KT 10SM SCT050 13/08 A3015 RMK AO2 SLP223 T01280078
Loading
Personal Weather Stations






























Interactive Weather Map New forecast layout! Learn more

10-Day Weather Forecast

Advertisements
Track Severe Weather on mobile